Ariel, Mississippi
Current Conditions -  °F | °C
As of 1:53 AM on Tuesday 21 Oct 2014 (Local Time) from KMCB Reporting Station
Clear Clear  
Wind Chill: 60°   Ceiling: Unl
Heat Index: 60°   Visibility: 10mi
Dew Point: 50°   Wind: 5mph
Humidity: 69%   Direction: 10°N
Pressure: 30.03"   Gusts: NA
Location:  31.1819°N, 90.9008°W
Report Text: KMCB 210653Z AUTO 01004KT 10SM CLR 16/10 A3003 RMK AO2 SLP163 T01560100
Loading
Personal Weather Stations






























Interactive Weather Map New forecast layout! Learn more

10-Day Weather Forecast

Advertisements
Track Severe Weather on mobile